Time;durP1;ratioP1;P1;durP2;ratioP2;P2;SDS_P1;SDS_P2;PMS_P1;PMS_P2;Temp;Humidity;BMP_temperature;BMP_pressure;BME280_temperature;BME280_humidity;BME280_pressure;Samples;Min_cycle;Max_cycle;Signal;HPM_P1;HPM_P2
2023/02/21 02:15:23;;;;;;;;;17.00;17.00;;;;;7.43;85.58;99366.84;6282089;20;3558703;-48
2023/02/21 02:18:27;;;;;;;;;13.00;13.00;;;;;7.52;85.17;99371.69;6275803;20;2798304;-48
2023/02/21 02:21:49;;;;;;;;;23.50;19.00;;;;;7.31;86.42;99362.16;6276292;20;2833684;-46
2023/02/21 02:24:44;;;;;;;;;21.00;19.50;;;;;7.46;85.73;99374.69;6274013;20;2500485;-48
2023/02/21 02:27:39;;;;;;;;;17.00;17.00;;;;;7.63;84.33;99377.28;6280538;20;2809665;-48
2023/02/21 02:30:53;;;;;;;;;21.00;15.50;;;;;7.39;84.50;99370.63;6282906;20;2834686;-46
2023/02/21 02:34:20;;;;;;;;;26.00;20.00;;;;;7.27;85.61;99369.47;6279623;20;2496129;-45
2023/02/21 02:37:17;;;;;;;;;22.00;21.00;;;;;7.22;86.13;99372.38;6279455;20;2500253;-45
2023/02/21 02:40:08;;;;;;;;;21.00;20.00;;;;;7.14;85.77;99376.41;6274092;20;2831743;-44
2023/02/21 02:43:07;;;;;;;;;23.00;22.00;;;;;6.41;87.60;99381.00;6281009;20;2850329;-45
2023/02/21 02:46:08;;;;;;;;;20.00;20.00;;;;;6.22;89.52;99383.72;6277070;20;2500348;-47
2023/02/21 02:48:57;;;;;;;;;33.00;27.00;;;;;5.98;90.28;99375.09;6279838;20;2850415;-48
2023/02/21 02:51:26;;;;;;;;;21.00;20.00;;;;;5.91;90.66;99375.34;6274488;20;2833692;-46
2023/02/21 02:53:55;;;;;;;;;26.50;25.00;;;;;5.96;91.01;99385.84;6274340;20;2836965;-46
2023/02/21 02:56:25;;;;;;;;;27.00;23.50;;;;;5.75;90.88;99374.34;6276903;20;2846144;-47
2023/02/21 02:59:05;;;;;;;;;27.50;25.00;;;;;5.63;92.03;99369.59;6281793;20;2846273;-46
2023/02/21 03:01:48;;;;;;;;;30.00;24.00;;;;;5.34;92.68;99371.78;6280895;20;2856515;-44
2023/02/21 03:04:51;;;;;;;;;28.00;26.00;;;;;5.38;92.97;99376.06;6281330;20;2841025;-46
2023/02/21 03:07:57;;;;;;;;;23.33;21.33;;;;;5.69;93.72;99369.31;6286202;20;3575311;-45
2023/02/21 03:10:51;;;;;;;;;28.50;23.50;;;;;5.85;93.24;99374.78;6280946;20;2848346;-46
2023/02/21 03:13:47;;;;;;;;;23.00;23.00;;;;;6.08;92.97;99376.38;6282610;20;2500248;-44
2023/02/21 03:16:54;;;;;;;;;27.00;21.00;;;;;6.30;92.01;99376.22;6286569;20;2845184;-48
2023/02/21 03:19:39;;;;;;;;;30.50;26.00;;;;;6.45;91.43;99361.25;6282436;20;2862761;-45
2023/02/21 03:22:17;;;;;;;;;26.50;23.00;;;;;6.56;90.48;99367.78;6285876;20;2852392;-44
2023/02/21 03:24:49;;;;;;;;;20.50;17.00;;;;;6.52;90.14;99370.66;6282953;20;2500363;-44
2023/02/21 03:27:20;;;;;;;;;25.00;22.00;;;;;6.63;90.07;99373.66;6286186;20;2840932;-47
2023/02/21 03:29:48;;;;;;;;;24.00;22.00;;;;;6.69;89.66;99365.34;6280317;20;2500330;-45
2023/02/21 03:32:44;;;;;;;;;18.50;17.00;;;;;6.50;89.94;99361.88;6283632;20;2823330;-44
2023/02/21 03:35:12;;;;;;;;;22.50;22.00;;;;;6.55;90.03;99370.50;6281314;20;2500371;-44
2023/02/21 03:37:48;;;;;;;;;23.50;20.50;;;;;6.41;90.28;99362.34;6281172;20;2500421;-46
2023/02/21 03:40:25;;;;;;;;;28.00;27.00;;;;;6.45;89.74;99366.56;6279733;20;2500324;-46
2023/02/21 03:42:58;;;;;;;;;37.00;28.00;;;;;6.33;89.96;99366.25;6285899;20;2866952;-49
2023/02/21 03:45:27;;;;;;;;;31.00;28.33;;;;;6.18;90.71;99369.66;6282473;20;2865021;-45
2023/02/21 03:47:56;;;;;;;;;30.00;28.50;;;;;6.14;90.81;99366.28;6316391;20;2852675;-47
2023/02/21 03:50:25;;;;;;;;;37.33;30.00;;;;;5.91;91.68;99372.69;6282283;20;3615898;-46
2023/02/21 03:52:54;;;;;;;;;23.33;15.33;;;;;5.90;91.52;99362.97;6314980;20;3566918;-46
2023/02/21 03:55:24;;;;;;;;;40.67;33.67;;;;;5.68;92.52;99375.56;6283631;20;2871232;-48
2023/02/21 03:57:53;;;;;;;;;36.67;32.67;;;;;5.92;92.03;99371.78;6317920;20;3613903;-45
2023/02/21 04:00:22;;;;;;;;;38.67;29.67;;;;;5.81;92.40;99373.19;6281101;20;3613801;-45
2023/02/21 04:02:51;;;;;;;;;22.33;18.33;;;;;6.55;90.01;99370.50;6313106;20;3564934;-44
2023/02/21 04:05:20;;;;;;;;;43.67;35.00;;;;;6.10;90.35;99377.16;6283895;20;2863802;-46
2023/02/21 04:07:48;;;;;;;;;22.50;21.00;;;;;6.34;90.06;99367.97;6312294;20;2492375;-45
2023/02/21 04:10:16;;;;;;;;;19.50;15.00;;;;;6.81;87.57;99370.03;6289515;20;2827591;-46
2023/02/21 04:12:44;;;;;;;;;23.50;15.50;;;;;6.98;86.32;99371.00;6287386;20;2819038;-45
2023/02/21 04:15:12;;;;;;;;;18.00;16.00;;;;;6.95;86.12;99369.34;6285105;20;2820089;-45
2023/02/21 04:17:40;;;;;;;;;18.33;15.00;;;;;6.90;86.61;99370.50;6286638;20;3552352;-45
2023/02/21 04:20:10;;;;;;;;;19.00;15.33;;;;;6.81;86.75;99367.38;6309999;20;3538873;-47
2023/02/21 04:22:39;;;;;;;;;13.00;13.00;;;;;6.84;86.84;99376.19;6315796;20;2809688;-44
2023/02/21 04:25:08;;;;;;;;;15.00;13.67;;;;;6.74;87.21;99366.00;6283238;20;2797289;-46
2023/02/21 04:27:37;;;;;;;;;16.67;13.67;;;;;6.75;87.10;99367.69;6315092;20;2806690;-46
2023/02/21 04:30:06;;;;;;;;;16.67;12.67;;;;;6.77;87.08;99370.31;6313374;20;2800340;-44
2023/02/21 04:32:36;;;;;;;;;13.80;11.60;;;;;6.94;86.25;99366.75;6337908;20;2794121;-46
2023/02/21 04:35:04;;;;;;;;;18.50;12.00;;;;;7.02;85.64;99376.09;6285830;20;2806598;-48
2023/02/21 04:37:33;;;;;;;;;28.00;27.00;;;;;7.08;85.47;99374.91;6283052;20;2848179;-45
2023/02/21 04:40:00;;;;;;;;;14.00;12.00;;;;;7.24;84.80;99380.28;6285838;20;2789914;-45
2023/02/21 04:42:29;;;;;;;;;9.25;6.75;;;;;7.34;84.09;99375.34;6303818;20;1820168;-45
2023/02/21 04:44:56;;;;;;;;;10.00;8.50;;;;;7.24;84.42;99373.16;6315472;20;2764932;-46
2023/02/21 04:47:26;;;;;;;;;7.00;4.50;;;;;7.31;84.13;99375.50;6283210;20;2756716;-44
2023/02/21 04:49:54;;;;;;;;;8.00;6.00;;;;;7.47;83.42;99381.75;6287092;20;2747272;-48
2023/02/21 04:52:22;;;;;;;;;5.00;5.00;;;;;7.50;82.93;99378.03;6287621;20;2740993;-45
2023/02/21 04:54:50;;;;;;;;;8.00;7.00;;;;;7.31;83.71;99384.38;6286864;20;2742063;-47
2023/02/21 04:57:17;;;;;;;;;5.00;5.00;;;;;7.25;84.01;99377.56;6318901;20;2740961;-48
2023/02/21 04:59:45;;;;;;;;;5.00;5.00;;;;;7.21;84.06;99383.13;6317273;20;2748258;-49
2023/02/21 05:02:15;;;;;;;;;5.00;3.80;;;;;7.41;83.66;99382.94;6306030;20;2746125;-47
2023/02/21 05:04:43;;;;;;;;;4.00;4.00;;;;;7.49;82.90;99385.19;6316216;20;2754489;-45
2023/02/21 05:07:11;;;;;;;;;7.00;4.50;;;;;7.39;83.27;99390.16;6282542;20;2747117;-44
2023/02/21 05:09:38;;;;;;;;;7.50;5.00;;;;;7.39;83.44;99389.31;6284644;20;2748214;-46
2023/02/21 05:12:10;;;;;;;;;6.50;6.00;;;;;7.41;83.38;99385.59;6332246;20;1808765;-46
2023/02/21 05:14:39;;;;;;;;;8.00;4.50;;;;;7.58;82.93;99382.06;6333614;20;1820303;-48
2023/02/21 05:17:08;;;;;;;;;4.00;3.00;;;;;7.70;81.94;99389.38;6318024;20;2750327;-46
2023/02/21 05:19:36;;;;;;;;;5.00;3.50;;;;;7.68;81.91;99388.59;6285258;20;2752417;-45
2023/02/21 05:22:06;;;;;;;;;7.00;7.00;;;;;7.64;82.24;99376.38;6286645;20;2750295;-46
2023/02/21 05:24:34;;;;;;;;;9.50;7.50;;;;;7.54;83.02;99388.50;6284380;20;2754456;-46
2023/02/21 05:27:03;;;;;;;;;4.75;4.00;;;;;7.69;82.43;99385.00;6295896;20;1818198;-46
2023/02/21 05:29:31;;;;;;;;;5.00;4.25;;;;;7.66;82.25;99382.50;6333750;20;1813975;-46
2023/02/21 05:31:59;;;;;;;;;5.00;5.00;;;;;7.56;82.96;99375.91;6315956;20;2748191;-47
2023/02/21 05:34:26;;;;;;;;;5.00;5.00;;;;;7.68;82.63;99377.03;6286182;20;2743077;-48
2023/02/21 05:36:55;;;;;;;;;6.25;4.75;;;;;7.78;82.23;99374.75;6329809;20;1810836;-44
2023/02/21 05:39:23;;;;;;;;;4.50;4.50;;;;;7.69;82.30;99374.31;6317185;20;2741989;-44
2023/02/21 05:41:51;;;;;;;;;6.25;5.00;;;;;7.70;82.46;99368.00;6300293;20;1816185;-45
2023/02/21 05:44:21;;;;;;;;;5.67;4.67;;;;;7.66;82.66;99369.13;6338766;20;1816033;-47
2023/02/21 05:46:48;;;;;;;;;4.00;4.00;;;;;7.74;82.71;99367.81;6313619;20;2753487;-45
2023/02/21 05:49:17;;;;;;;;;8.00;6.50;;;;;7.78;82.47;99364.06;6299368;20;1798468;-47
2023/02/21 05:51:45;;;;;;;;;6.00;6.00;;;;;7.80;82.16;99362.16;6313256;20;2750274;-44
2023/02/21 05:54:18;;;;;;;;;3.00;3.00;;;;;7.91;82.31;99363.28;6299895;20;1808794;-48
2023/02/21 05:56:49;;;;;;;;;8.50;3.50;;;;;8.12;81.16;99368.38;6313148;20;2755532;-46
2023/02/21 05:59:20;;;;;;;;;8.50;7.00;;;;;8.11;81.51;99372.88;6279176;20;2752401;-47
2023/02/21 06:01:50;;;;;;;;;5.00;3.25;;;;;8.07;81.52;99370.44;6297503;20;1808498;-46
2023/02/21 06:04:18;;;;;;;;;8.00;5.50;;;;;8.18;81.73;99367.16;6316292;20;2739959;-45
2023/02/21 06:06:50;;;;;;;;;4.80;4.80;;;;;8.29;81.07;99370.06;6324796;20;2485727;-45
2023/02/21 06:09:19;;;;;;;;;4.00;4.00;;;;;9.49;77.73;99376.38;6332824;20;1816047;-48
2023/02/21 06:11:47;;;;;;;;;6.00;4.50;;;;;11.19;69.15;99386.72;6314544;20;2756678;-46
2023/02/21 06:14:20;;;;;;;;;9.50;5.00;;;;;12.08;64.56;99400.16;6283724;20;2753457;-47
2023/02/21 06:16:47;;;;;;;;;5.00;4.00;;;;;10.94;67.57;99392.91;6283057;20;2754505;-44
2023/02/21 06:19:16;;;;;;;;;5.00;5.00;;;;;9.74;72.49;99389.97;6284250;20;2732691;-47
2023/02/21 06:21:45;;;;;;;;;7.50;5.00;;;;;9.47;74.58;99402.41;6281046;20;2754462;-46
2023/02/21 06:24:13;;;;;;;;;6.00;5.00;;;;;9.92;72.36;99400.47;6295791;20;2737786;-47
2023/02/21 06:26:41;;;;;;;;;8.00;7.00;;;;;9.70;73.32;99396.47;6281214;20;2747200;-50
2023/02/21 06:29:10;;;;;;;;;4.00;4.00;;;;;9.83;73.26;99397.41;6281662;20;2744042;-45
2023/02/21 06:31:38;;;;;;;;;6.00;4.50;;;;;9.97;72.04;99396.53;6287775;20;2752372;-45
2023/02/21 06:34:07;;;;;;;;;6.00;6.00;;;;;10.45;71.14;99402.44;6304286;20;1816044;-44
2023/02/21 06:36:35;;;;;;;;;9.00;7.00;;;;;10.42;70.30;99399.06;6321858;20;2748207;-46
2023/02/21 06:39:03;;;;;;;;;13.00;6.50;;;;;10.86;68.59;99397.94;6288983;20;2758607;-46
2023/02/21 06:41:32;;;;;;;;;0.50;0.50;;;;;11.21;67.03;99395.53;6298889;20;1805695;-46
2023/02/21 06:44:00;;;;;;;;;3.25;3.25;;;;;11.72;65.78;99392.00;6339035;20;1807696;-47
2023/02/21 06:46:31;;;;;;;;;2.86;2.57;;;;;12.30;63.51;99387.81;6363199;20;3453368;-46
2023/02/21 06:48:59;;;;;;;;;4.00;4.00;;;;;13.57;58.22;99398.88;6320623;20;2754499;-47
2023/02/21 06:51:37;;;;;;;;;8.80;5.00;;;;;15.00;54.29;99401.63;6307578;20;2750322;-46
2023/02/21 06:54:09;;;;;;;;;4.00;4.00;;;;;15.47;51.43;99396.69;6319380;20;2752336;-46
2023/02/21 06:56:36;;;;;;;;;5.00;5.00;;;;;16.29;48.95;99401.22;6289733;20;2747187;-48
2023/02/21 06:59:07;;;;;;;;;3.60;3.60;;;;;16.13;49.82;99406.31;6314066;20;2754522;-46
2023/02/21 07:01:38;;;;;;;;;4.29;4.29;;;;;16.80;47.53;99400.25;6359710;20;1793574;-46
2023/02/21 07:04:05;;;;;;;;;5.00;5.00;;;;;18.21;44.30;99411.28;6321364;20;2748303;-45
2023/02/21 07:06:35;;;;;;;;;4.80;4.80;;;;;16.99;45.74;99410.25;6314086;20;2754529;-47
2023/02/21 07:09:03;;;;;;;;;4.00;4.00;;;;;17.74;44.77;99427.56;6319003;20;2751485;-46
2023/02/21 07:11:34;;;;;;;;;5.00;5.00;;;;;18.89;41.26;99430.97;6287937;20;2743011;-50
2023/02/21 07:14:02;;;;;;;;;5.00;4.00;;;;;18.35;42.41;99436.25;6288309;20;2750301;-45
2023/02/21 07:16:30;;;;;;;;;4.00;4.00;;;;;19.03;40.39;99442.16;6292123;20;2744106;-45
2023/02/21 07:19:00;;;;;;;;;5.80;4.40;;;;;19.65;38.80;99460.44;6311650;20;2751325;-45
2023/02/21 07:21:28;;;;;;;;;12.33;10.00;;;;;18.74;40.38;99449.66;6280870;20;3495161;-46
2023/02/21 07:23:56;;;;;;;;;3.00;3.00;;;;;15.01;49.00;99438.50;6319031;20;2735739;-50
2023/02/21 07:26:24;;;;;;;;;7.00;6.00;;;;;14.02;53.26;99442.06;6288304;20;2737791;-47
2023/02/21 07:28:51;;;;;;;;;4.00;2.50;;;;;13.39;55.32;99439.75;6288580;20;2734657;-50
2023/02/21 07:31:19;;;;;;;;;3.50;3.50;;;;;13.80;54.57;99459.97;6285941;20;2750304;-50
2023/02/21 07:33:47;;;;;;;;;4.50;4.50;;;;;13.87;54.67;99449.53;6288040;20;2747353;-47
2023/02/21 07:36:16;;;;;;;;;5.00;4.50;;;;;13.77;55.05;99445.84;6288579;20;2740872;-46
2023/02/21 07:38:43;;;;;;;;;3.00;3.00;;;;;13.66;55.70;99462.03;6288568;20;2752362;-45
2023/02/21 07:41:12;;;;;;;;;4.00;4.00;;;;;13.49;55.91;99460.66;6289294;20;2754481;-45
2023/02/21 07:43:41;;;;;;;;;6.50;4.50;;;;;13.28;57.13;99455.06;6286447;20;2748210;-46
2023/02/21 07:46:15;;;;;;;;;9.00;6.00;;;;;13.17;57.32;99462.09;6291943;20;2731666;-47
2023/02/21 07:48:43;;;;;;;;;9.00;9.00;;;;;13.60;56.59;99457.97;6283258;20;2747179;-46
2023/02/21 07:51:11;;;;;;;;;3.00;3.00;;;;;13.31;56.59;99458.38;6285780;20;2751387;-44
2023/02/21 07:53:40;;;;;;;;;4.50;4.50;;;;;13.17;56.86;99455.84;6289738;20;2754497;-48
2023/02/21 07:56:07;;;;;;;;;6.00;6.00;;;;;13.31;57.11;99457.53;6291938;20;2739921;-47
2023/02/21 07:58:38;;;;;;;;;4.00;4.00;;;;;13.48;57.36;99454.41;6286338;20;2748238;-45
2023/02/21 08:01:06;;;;;;;;;8.00;5.50;;;;;13.91;56.13;99455.56;6284530;20;2748197;-45
2023/02/21 08:03:36;;;;;;;;;3.00;3.00;;;;;13.38;56.57;99454.25;6286663;20;2746193;-47
2023/02/21 08:06:04;;;;;;;;;3.50;3.00;;;;;13.60;57.50;99444.47;6290625;20;2735710;-46
2023/02/21 08:08:32;;;;;;;;;4.00;4.00;;;;;13.73;56.46;99439.00;6282821;20;2752403;-50
2023/02/21 08:11:00;;;;;;;;;4.00;4.00;;;;;13.46;57.34;99442.00;6289347;20;2750272;-47
2023/02/21 08:13:27;;;;;;;;;6.50;3.00;;;;;13.45;57.59;99438.44;6288729;20;2744101;-45
2023/02/21 08:15:55;;;;;;;;;3.00;3.00;;;;;13.36;57.83;99440.00;6290045;20;2741969;-46
2023/02/21 08:18:24;;;;;;;;;3.50;3.50;;;;;13.67;57.40;99437.63;6287832;20;2752382;-45
2023/02/21 08:20:55;;;;;;;;;5.50;5.00;;;;;13.67;57.96;99426.84;6287499;20;2748216;-45
2023/02/21 08:23:23;;;;;;;;;5.00;3.00;;;;;13.57;58.20;99415.06;6286166;20;2739283;-47
2023/02/21 08:25:51;;;;;;;;;3.00;3.00;;;;;13.94;57.39;99436.44;6284821;20;2744048;-46
2023/02/21 08:28:19;;;;;;;;;5.00;3.50;;;;;13.82;58.10;99424.75;6286669;20;2753439;-47
2023/02/21 08:30:47;;;;;;;;;2.00;2.00;;;;;13.60;58.00;99421.06;6289654;20;2744038;-47
2023/02/21 08:33:14;;;;;;;;;4.00;4.00;;;;;13.51;57.46;99418.25;6288086;20;2754443;-50
2023/02/21 08:35:42;;;;;;;;;3.00;3.00;;;;;13.53;58.18;99413.56;6290665;20;2732606;-47
2023/02/21 08:38:10;;;;;;;;;7.00;4.00;;;;;13.75;57.45;99419.00;6289343;20;2752351;-47
2023/02/21 08:40:38;;;;;;;;;3.00;3.00;;;;;13.86;57.64;99425.38;6285027;20;2751402;-49
2023/02/21 08:43:05;;;;;;;;;4.00;4.00;;;;;13.99;56.86;99416.19;6290521;20;2749203;-48
2023/02/21 08:45:33;;;;;;;;;4.50;3.00;;;;;14.08;57.25;99419.13;6285201;20;2727377;-46
2023/02/21 08:48:01;;;;;;;;;3.00;3.00;;;;;13.68;56.87;99420.44;6288785;20;2740920;-47
2023/02/21 08:50:29;;;;;;;;;4.00;4.00;;;;;13.69;57.61;99416.78;6285948;20;2756561;-48
2023/02/21 08:52:57;;;;;;;;;5.00;4.00;;;;;13.94;57.04;99433.72;6290149;20;2748254;-45
2023/02/21 08:55:25;;;;;;;;;3.00;3.00;;;;;13.88;57.22;99423.44;6287747;20;2746092;-46
2023/02/21 08:57:53;;;;;;;;;4.00;4.00;;;;;13.93;56.93;99415.78;6290443;20;2752765;-46
2023/02/21 09:00:27;;;;;;;;;4.00;4.00;;;;;13.80;56.59;99430.28;6283568;20;2748318;-47
2023/02/21 09:02:56;;;;;;;;;4.00;4.00;;;;;14.01;56.47;99432.28;6285947;20;2751296;-49
2023/02/21 09:05:29;;;;;;;;;4.00;4.00;;;;;14.37;55.11;99431.13;6285809;20;2754738;-45
2023/02/21 09:08:04;;;;;;;;;3.50;3.00;;;;;14.40;55.13;99435.41;6280168;20;2738959;-45
2023/02/21 09:10:32;;;;;;;;;5.00;5.00;;;;;14.71;54.38;99425.69;6284289;20;2756567;-46
2023/02/21 09:13:04;;;;;;;;;5.00;4.50;;;;;14.31;55.21;99425.38;6287413;20;2752610;-47
2023/02/21 09:15:32;;;;;;;;;6.00;3.00;;;;;14.36;55.17;99440.22;6282811;20;2739975;-47
2023/02/21 09:17:59;;;;;;;;;4.00;1.00;;;;;14.04;55.79;99440.97;6288061;20;2744029;-47
2023/02/21 09:20:28;;;;;;;;;5.50;4.00;;;;;14.15;55.72;99417.66;6284318;20;2752447;-45
2023/02/21 09:22:56;;;;;;;;;3.00;3.00;;;;;14.21;55.56;99420.69;6287362;20;2744175;-52
2023/02/21 09:25:24;;;;;;;;;3.00;2.00;;;;;14.26;56.16;99429.28;6282630;20;2753525;-46
2023/02/21 09:27:52;;;;;;;;;6.00;5.00;;;;;14.32;55.24;99429.78;6285767;20;2740059;-45
2023/02/21 09:30:25;;;;;;;;;5.50;5.50;;;;;14.71;55.96;99423.81;6284809;20;2752461;-46
2023/02/21 09:32:57;;;;;;;;;3.00;3.00;;;;;14.37;54.96;99422.16;6303251;20;1805626;-46
2023/02/21 09:35:25;;;;;;;;;5.00;3.50;;;;;14.71;54.80;99431.09;6315530;20;2748199;-46
2023/02/21 09:37:53;;;;;;;;;6.00;3.00;;;;;14.90;54.69;99427.69;6284898;20;2755494;-47
2023/02/21 09:40:38;;;;;;;;;5.00;5.00;;;;;14.21;55.15;99434.19;6285522;20;2747161;-46
2023/02/21 09:43:20;;;;;;;;;5.00;4.00;;;;;14.58;55.49;99427.69;6282504;20;2751430;-47
2023/02/21 09:45:54;;;;;;;;;3.00;3.00;;;;;14.57;55.77;99437.63;6286528;20;2762916;-45
2023/02/21 09:48:23;;;;;;;;;6.50;4.00;;;;;14.61;55.20;99424.72;6281240;20;2746247;-46
2023/02/21 09:50:57;;;;;;;;;4.00;4.00;;;;;14.67;55.29;99422.38;6282867;20;2741983;-48
2023/02/21 09:53:43;;;;;;;;;2.00;2.00;;;;;14.59;55.25;99435.66;6286466;20;2741945;-47
2023/02/21 09:56:34;;;;;;;;;4.50;3.00;;;;;15.06;55.02;99430.84;6286220;20;2754467;-48
2023/02/21 09:59:02;;;;;;;;;1.50;1.50;;;;;14.52;55.79;99441.66;6285836;20;2736833;-44
2023/02/21 10:02:09;;;;;;;;;2.00;2.00;;;;;14.59;55.85;99454.59;6292567;20;2744041;-45
2023/02/21 10:05:02;;;;;;;;;4.50;2.00;;;;;14.38;55.91;99448.22;6290017;20;2741967;-45
2023/02/21 10:08:08;;;;;;;;;4.00;4.00;;;;;14.95;55.45;99452.50;6288515;20;2748437;-48
2023/02/21 10:11:29;;;;;;;;;3.50;3.00;;;;;15.13;54.97;99447.41;6288349;20;2733691;-49
2023/02/21 10:14:40;;;;;;;;;2.50;1.00;;;;;14.91;54.76;99451.06;6291704;20;2737767;-48
2023/02/21 10:17:45;;;;;;;;;2.50;2.50;;;;;15.05;54.52;99453.47;6293036;20;2737985;-50
2023/02/21 10:20:33;;;;;;;;;5.00;5.00;;;;;15.17;54.46;99456.13;6289628;20;2748287;-50
2023/02/21 10:23:16;;;;;;;;;2.00;2.00;;;;;15.40;53.06;99446.91;6292636;20;2735771;-45
2023/02/21 10:25:46;;;;;;;;;7.00;5.00;;;;;15.47;52.71;99452.66;6287510;20;2748229;-49
2023/02/21 10:28:23;;;;;;;;;3.00;3.00;;;;;15.94;52.67;99458.53;6293561;20;2746158;-48
2023/02/21 10:31:01;;;;;;;;;2.00;2.00;;;;;16.24;52.01;99454.97;6289377;20;2756623;-47
2023/02/21 10:33:31;;;;;;;;;5.00;4.00;;;;;16.22;51.95;99449.72;6290247;20;2745183;-50
2023/02/21 10:35:59;;;;;;;;;1.00;1.00;;;;;16.15;51.33;99463.94;6291606;20;2741992;-48
2023/02/21 10:38:27;;;;;;;;;1.50;1.50;;;;;15.91;51.67;99451.56;6293415;20;2734139;-47
2023/02/21 10:41:03;;;;;;;;;3.00;3.00;;;;;15.90;52.18;99457.94;6291307;20;2735687;-49
2023/02/21 10:43:37;;;;;;;;;2.00;2.00;;;;;15.39;53.29;99450.59;6290774;20;2744072;-46
2023/02/21 10:46:26;;;;;;;;;2.00;2.00;;;;;15.52;53.67;99462.09;6289154;20;2749335;-47
2023/02/21 10:49:27;;;;;;;;;2.00;2.00;;;;;15.09;53.82;99448.66;6289891;20;2752525;-46
2023/02/21 10:52:16;;;;;;;;;1.00;1.00;;;;;15.03;54.87;99444.59;6292555;20;2724335;-48
2023/02/21 10:55:16;;;;;;;;;5.50;3.00;;;;;15.35;54.33;99441.06;6289088;20;2742400;-47
2023/02/21 10:58:08;;;;;;;;;3.00;3.00;;;;;15.08;54.67;99431.56;6293025;20;2744093;-50
2023/02/21 11:00:46;;;;;;;;;3.00;3.00;;;;;15.44;54.28;99429.44;6285851;20;2756542;-46
2023/02/21 11:03:17;;;;;;;;;1.00;1.00;;;;;15.58;53.45;99423.66;6295505;20;2726315;-45
2023/02/21 11:05:58;;;;;;;;;1.00;1.00;;;;;15.25;53.62;99405.81;6291946;20;2737779;-47
2023/02/21 11:08:44;;;;;;;;;7.00;2.50;;;;;15.37;53.82;99420.97;6286888;20;2751325;-49
2023/02/21 11:11:11;;;;;;;;;2.00;2.00;;;;;14.93;54.42;99416.66;6291827;20;2734813;-48
2023/02/21 11:13:39;;;;;;;;;2.00;2.00;;;;;15.33;53.62;99418.69;6288932;20;2744125;-45
2023/02/21 11:16:23;;;;;;;;;1.00;1.00;;;;;15.17;54.08;99415.56;6287627;20;2747238;-47
2023/02/21 11:19:13;;;;;;;;;3.00;3.00;;;;;15.54;53.78;99415.97;6292082;20;2737828;-49
2023/02/21 11:21:44;;;;;;;;;2.00;2.00;;;;;15.39;52.99;99412.72;6285862;20;2753428;-48
2023/02/21 11:24:12;;;;;;;;;4.00;4.00;;;;;14.90;54.02;99400.66;6285310;20;2756543;-53
2023/02/21 11:26:51;;;;;;;;;5.00;3.00;;;;;15.25;53.51;99402.25;6289792;20;2746144;-49
2023/02/21 11:29:26;;;;;;;;;2.00;0.00;;;;;15.22;53.77;99388.97;6290674;20;2726346;-49
2023/02/21 11:31:55;;;;;;;;;5.00;3.50;;;;;15.54;53.21;99397.88;6292225;20;2746181;-49
2023/02/21 11:34:29;;;;;;;;;10.00;8.00;;;;;15.75;52.87;99408.72;6296376;20;2751341;-46
2023/02/21 11:37:04;;;;;;;;;4.00;2.00;;;;;15.47;53.41;99406.66;6285857;20;2755587;-48
2023/02/21 11:39:33;;;;;;;;;5.00;3.00;;;;;15.23;53.57;99404.22;6287629;20;2756721;-45
2023/02/21 11:42:05;;;;;;;;;4.00;4.00;;;;;15.27;53.59;99409.25;6288037;20;2754468;-45
2023/02/21 11:44:40;;;;;;;;;4.00;4.00;;;;;15.54;53.37;99400.59;6289166;20;2737792;-43
2023/02/21 11:47:28;;;;;;;;;3.00;2.50;;;;;15.46;53.10;99403.09;6287107;20;2748201;-44
2023/02/21 11:50:48;;;;;;;;;3.50;3.50;;;;;15.54;52.99;99397.88;6286708;20;2746201;-45
2023/02/21 11:53:30;;;;;;;;;3.00;3.00;;;;;15.54;52.68;99400.59;6286572;20;2757035;-44
2023/02/21 11:56:28;;;;;;;;;7.40;7.40;;;;;15.63;52.83;99398.06;6308406;20;2740919;-45
2023/02/21 11:59:38;;;;;;;;;5.00;5.00;;;;;15.78;52.76;99394.06;6319475;20;2747306;-44
2023/02/21 12:02:52;;;;;;;;;4.00;4.00;;;;;15.67;52.68;99396.81;6289706;20;2752462;-46
2023/02/21 12:05:44;;;;;;;;;4.00;4.00;;;;;15.81;52.22;99391.06;6287643;20;2752423;-49
2023/02/21 12:09:07;;;;;;;;;8.00;5.00;;;;;15.69;53.42;99398.44;6287606;20;2747181;-44
2023/02/21 12:12:10;;;;;;;;;8.20;5.60;;;;;15.52;53.50;99389.03;6306879;20;2748182;-44
2023/02/21 12:15:20;;;;;;;;;4.50;2.00;;;;;15.42;54.36;99401.63;6317956;20;2756022;-46
2023/02/21 12:18:37;;;;;;;;;4.50;4.50;;;;;15.37;53.70;99398.47;6284164;20;2751322;-45
2023/02/21 12:21:57;;;;;;;;;3.50;2.00;;;;;15.55;54.01;99398.72;6285310;20;2739913;-45
2023/02/21 12:24:54;;;;;;;;;3.00;3.00;;;;;15.50;53.29;99391.00;6284044;20;2729508;-49
2023/02/21 12:27:30;;;;;;;;;3.00;3.00;;;;;15.61;53.65;99394.63;6286288;20;2754546;-44
2023/02/21 12:30:48;;;;;;;;;3.00;3.00;;;;;15.50;53.38;99377.47;6285978;20;2746121;-45
2023/02/21 12:34:12;;;;;;;;;5.00;3.00;;;;;15.69;53.53;99375.91;6288373;20;2752383;-44
2023/02/21 12:36:50;;;;;;;;;5.50;3.00;;;;;16.00;53.28;99377.59;6299791;20;1825466;-45
2023/02/21 12:39:50;;;;;;;;;4.00;4.00;;;;;15.82;53.09;99370.28;6312423;20;2752394;-46
2023/02/21 12:42:49;;;;;;;;;6.00;5.50;;;;;15.63;53.77;99377.28;6283717;20;2748204;-48
2023/02/21 12:45:36;;;;;;;;;7.50;7.50;;;;;15.86;53.64;99383.41;6288612;20;2742035;-43
2023/02/21 12:48:33;;;;;;;;;2.00;2.00;;;;;15.76;53.50;99379.78;6287795;20;2748187;-44
2023/02/21 12:51:12;;;;;;;;;5.50;4.00;;;;;15.45;54.23;99374.31;6285339;20;2749469;-44
2023/02/21 12:54:10;;;;;;;;;6.00;4.50;;;;;15.72;53.70;99381.06;6282151;20;2747228;-45
2023/02/21 12:57:04;;;;;;;;;5.50;4.00;;;;;15.62;54.30;99385.53;6281329;20;2752372;-45
2023/02/21 12:59:59;;;;;;;;;4.00;4.00;;;;;15.73;54.18;99388.19;6285358;20;2748270;-46
2023/02/21 13:02:59;;;;;;;;;6.00;5.00;;;;;15.90;53.91;99376.72;6283339;20;2748321;-46
2023/02/21 13:05:45;;;;;;;;;5.00;3.00;;;;;15.40;54.61;99370.28;6285576;20;2750360;-44
2023/02/21 13:09:25;;;;;;;;;4.00;3.50;;;;;15.41;54.75;99369.31;6284262;20;2745128;-44
2023/02/21 13:12:07;;;;;;;;;4.00;4.00;;;;;15.64;54.82;99356.47;6281640;20;2748204;-48
2023/02/21 13:14:52;;;;;;;;;5.00;5.00;;;;;15.73;54.78;99366.53;6287151;20;2733608;-44
2023/02/21 13:17:19;;;;;;;;;5.50;5.00;;;;;15.76;54.70;99363.56;6281441;20;2748296;-44
2023/02/21 13:20:05;;;;;;;;;4.00;4.00;;;;;15.74;54.69;99369.09;6284745;20;2733724;-45
2023/02/21 13:23:39;;;;;;;;;5.00;5.00;;;;;15.93;54.78;99371.06;6287645;20;2752399;-46
2023/02/21 13:26:55;;;;;;;;;4.00;4.00;;;;;15.47;55.36;99375.03;6324222;20;2473206;-45
2023/02/21 13:29:31;;;;;;;;;6.50;5.00;;;;;15.29;55.86;99390.16;6318627;20;2733633;-49
2023/02/21 13:32:11;;;;;;;;;4.00;3.00;;;;;15.55;55.06;99375.22;6284560;20;2738897;-49
2023/02/21 13:35:01;;;;;;;;;5.50;5.50;;;;;15.56;54.78;99390.50;6277370;20;2729452;-43
2023/02/21 13:37:33;;;;;;;;;4.50;4.00;;;;;15.59;54.76;99384.81;6274704;20;2754485;-45
2023/02/21 13:40:51;;;;;;;;;2.00;2.00;;;;;15.72;54.79;99383.78;6281895;20;2744057;-49
2023/02/21 13:43:31;;;;;;;;;3.00;2.00;;;;;15.65;54.54;99374.44;6282433;20;2730496;-45
2023/02/21 13:46:31;;;;;;;;;5.00;4.00;;;;;15.91;54.45;99385.72;6281654;20;2750305;-48
2023/02/21 13:49:52;;;;;;;;;3.00;3.00;;;;;15.93;54.19;99387.28;6284343;20;2701317;-44
2023/02/21 13:52:23;;;;;;;;;6.50;6.50;;;;;15.51;55.12;99379.22;6284810;20;2734637;-48
2023/02/21 13:55:14;;;;;;;;;3.00;2.00;;;;;15.05;56.06;99376.91;6284054;20;2744033;-45
2023/02/21 13:57:56;;;;;;;;;7.50;7.50;;;;;14.85;56.37;99367.75;6286240;20;2731579;-45
2023/02/21 14:00:24;;;;;;;;;11.50;9.00;;;;;14.90;56.82;99362.81;6279330;20;2763803;-46
2023/02/21 14:03:08;;;;;;;;;12.67;12.67;;;;;14.68;57.41;99370.03;6283668;20;2792055;-45
2023/02/21 14:05:49;;;;;;;;;6.00;3.50;;;;;14.59;57.81;99375.38;6314160;20;2747244;-47
2023/02/21 14:08:48;;;;;;;;;8.50;7.00;;;;;14.87;57.13;99372.06;6283608;20;2734644;-46
2023/02/21 14:11:27;;;;;;;;;6.00;6.00;;;;;14.49;57.84;99369.84;6276803;20;2740029;-44
2023/02/21 14:14:26;;;;;;;;;6.00;5.00;;;;;14.75;57.91;99385.75;6283512;20;2737792;-44
2023/02/21 14:17:06;;;;;;;;;8.50;8.50;;;;;14.66;57.76;99377.41;6282115;20;2750251;-45
2023/02/21 14:19:51;;;;;;;;;6.00;5.50;;;;;14.88;57.59;99386.44;6284297;20;2738896;-45
2023/02/21 14:22:29;;;;;;;;;7.00;7.00;;;;;14.99;57.39;99385.53;6324386;20;3455583;-46